sensor_id;sensor_type;location;lat;lon;timestamp;pressure;altitude;pressure_sealevel;temperature;humidity
63097;BME280;49185;42.320;23.198;2023-04-24T00:00:23;94684.06;;;8.08;83.07
63097;BME280;49185;42.320;23.198;2023-04-24T00:02:48;94682.03;;;7.86;84.22
63097;BME280;49185;42.320;23.198;2023-04-24T00:05:15;94685.66;;;8.09;84.17
63097;BME280;49185;42.320;23.198;2023-04-24T00:07:41;94674.22;;;8.32;82.31
63097;BME280;49185;42.320;23.198;2023-04-24T00:10:08;94674.59;;;8.24;81.88
63097;BME280;49185;42.320;23.198;2023-04-24T00:12:33;94670.72;;;7.91;83.84
63097;BME280;49185;42.320;23.198;2023-04-24T00:14:59;94660.03;;;7.86;84.52
63097;BME280;49185;42.320;23.198;2023-04-24T00:17:25;94663.00;;;8.01;83.11
63097;BME280;49185;42.320;23.198;2023-04-24T00:19:50;94656.28;;;8.10;82.91
63097;BME280;49185;42.320;23.198;2023-04-24T00:22:15;94656.09;;;8.00;83.51
63097;BME280;49185;42.320;23.198;2023-04-24T00:24:41;94656.63;;;8.14;83.39
63097;BME280;49185;42.320;23.198;2023-04-24T00:27:06;94656.06;;;8.52;81.60
63097;BME280;49185;42.320;23.198;2023-04-24T00:29:32;94647.13;;;8.30;82.70
63097;BME280;49185;42.320;23.198;2023-04-24T00:31:57;94649.28;;;8.04;84.61
63097;BME280;49185;42.320;23.198;2023-04-24T00:34:23;94654.03;;;8.02;84.69
63097;BME280;49185;42.320;23.198;2023-04-24T00:36:48;94648.50;;;8.44;84.75
63097;BME280;49185;42.320;23.198;2023-04-24T00:39:14;94646.25;;;8.99;81.60
63097;BME280;49185;42.320;23.198;2023-04-24T00:41:39;94644.00;;;8.90;82.28
63097;BME280;49185;42.320;23.198;2023-04-24T00:44:05;94644.44;;;8.13;87.23
63097;BME280;49185;42.320;23.198;2023-04-24T00:46:31;94631.75;;;7.63;90.80
63097;BME280;49185;42.320;23.198;2023-04-24T00:48:56;94636.00;;;7.52;89.86
63097;BME280;49185;42.320;23.198;2023-04-24T00:51:24;94632.13;;;7.54;89.92
63097;BME280;49185;42.320;23.198;2023-04-24T00:53:49;94641.31;;;7.52;92.50
63097;BME280;49185;42.320;23.198;2023-04-24T00:56:15;94639.84;;;8.08;90.87
63097;BME280;49185;42.320;23.198;2023-04-24T00:58:41;94640.97;;;8.53;87.77
63097;BME280;49185;42.320;23.198;2023-04-24T01:01:07;94638.50;;;8.63;86.06
63097;BME280;49185;42.320;23.198;2023-04-24T01:03:33;94636.31;;;8.60;85.81
63097;BME280;49185;42.320;23.198;2023-04-24T01:06:00;94623.28;;;7.89;89.35
63097;BME280;49185;42.320;23.198;2023-04-24T01:08:27;94618.50;;;7.63;90.32
63097;BME280;49185;42.320;23.198;2023-04-24T01:10:54;94615.28;;;7.60;91.42
63097;BME280;49185;42.320;23.198;2023-04-24T01:13:20;94626.00;;;8.18;89.37
63097;BME280;49185;42.320;23.198;2023-04-24T01:15:46;94627.06;;;8.46;88.00
63097;BME280;49185;42.320;23.198;2023-04-24T01:18:12;94623.38;;;8.47;88.05
63097;BME280;49185;42.320;23.198;2023-04-24T01:20:40;94629.38;;;8.42;87.76
63097;BME280;49185;42.320;23.198;2023-04-24T01:23:07;94641.94;;;8.47;87.45
63097;BME280;49185;42.320;23.198;2023-04-24T01:25:33;94643.41;;;8.43;87.50
63097;BME280;49185;42.320;23.198;2023-04-24T01:27:58;94645.78;;;8.27;88.37
63097;BME280;49185;42.320;23.198;2023-04-24T01:30:25;94634.81;;;7.83;89.87
63097;BME280;49185;42.320;23.198;2023-04-24T01:32:51;94644.53;;;7.54;91.48
63097;BME280;49185;42.320;23.198;2023-04-24T01:35:17;94635.44;;;7.38;93.68
63097;BME280;49185;42.320;23.198;2023-04-24T01:37:43;94638.19;;;7.43;92.19
63097;BME280;49185;42.320;23.198;2023-04-24T01:40:09;94635.44;;;7.38;93.42
63097;BME280;49185;42.320;23.198;2023-04-24T01:42:35;94634.63;;;7.26;95.86
63097;BME280;49185;42.320;23.198;2023-04-24T01:45:02;94637.50;;;7.24;95.88
63097;BME280;49185;42.320;23.198;2023-04-24T01:47:28;94630.94;;;7.15;94.65
63097;BME280;49185;42.320;23.198;2023-04-24T01:49:53;94643.03;;;7.11;95.13
63097;BME280;49185;42.320;23.198;2023-04-24T01:52:19;94642.91;;;7.06;96.33
63097;BME280;49185;42.320;23.198;2023-04-24T01:54:44;94642.69;;;7.07;97.37
63097;BME280;49185;42.320;23.198;2023-04-24T01:57:10;94632.78;;;7.02;98.64
63097;BME280;49185;42.320;23.198;2023-04-24T01:59:35;94643.94;;;7.16;98.10
63097;BME280;49185;42.320;23.198;2023-04-24T02:02:01;94646.94;;;7.20;98.08
63097;BME280;49185;42.320;23.198;2023-04-24T02:04:26;94644.19;;;7.38;97.77
63097;BME280;49185;42.320;23.198;2023-04-24T02:06:51;94649.03;;;7.53;97.13
63097;BME280;49185;42.320;23.198;2023-04-24T02:09:17;94634.84;;;7.71;95.12
63097;BME280;49185;42.320;23.198;2023-04-24T02:11:42;94631.78;;;7.51;95.93
63097;BME280;49185;42.320;23.198;2023-04-24T02:14:08;94624.06;;;7.49;96.04
63097;BME280;49185;42.320;23.198;2023-04-24T02:16:33;94608.97;;;7.50;96.83
63097;BME280;49185;42.320;23.198;2023-04-24T02:18:58;94598.03;;;7.46;96.68
63097;BME280;49185;42.320;23.198;2023-04-24T02:21:24;94603.41;;;7.63;96.70
63097;BME280;49185;42.320;23.198;2023-04-24T02:23:49;94603.91;;;7.60;97.73
63097;BME280;49185;42.320;23.198;2023-04-24T02:26:15;94601.84;;;8.03;94.58
63097;BME280;49185;42.320;23.198;2023-04-24T02:28:40;94596.75;;;8.13;93.29
63097;BME280;49185;42.320;23.198;2023-04-24T02:31:06;94598.53;;;8.24;92.54
63097;BME280;49185;42.320;23.198;2023-04-24T02:33:31;94585.81;;;8.09;92.28
63097;BME280;49185;42.320;23.198;2023-04-24T02:35:56;94592.84;;;8.04;92.70
63097;BME280;49185;42.320;23.198;2023-04-24T02:38:22;94584.00;;;7.98;92.87
63097;BME280;49185;42.320;23.198;2023-04-24T02:40:47;94577.28;;;8.07;92.67
63097;BME280;49185;42.320;23.198;2023-04-24T02:43:13;94580.19;;;8.06;92.21
63097;BME280;49185;42.320;23.198;2023-04-24T02:45:38;94575.91;;;8.05;92.35
63097;BME280;49185;42.320;23.198;2023-04-24T02:48:04;94568.50;;;7.78;92.90
63097;BME280;49185;42.320;23.198;2023-04-24T02:50:29;94569.84;;;7.92;93.26
63097;BME280;49185;42.320;23.198;2023-04-24T02:52:55;94558.69;;;7.90;92.93
63097;BME280;49185;42.320;23.198;2023-04-24T02:55:20;94559.25;;;7.92;92.76
63097;BME280;49185;42.320;23.198;2023-04-24T02:57:45;94563.53;;;7.93;92.64
63097;BME280;49185;42.320;23.198;2023-04-24T03:00:11;94564.09;;;7.95;92.13
63097;BME280;49185;42.320;23.198;2023-04-24T03:02:37;94568.56;;;7.95;91.76
63097;BME280;49185;42.320;23.198;2023-04-24T03:05:02;94568.72;;;7.88;92.76
63097;BME280;49185;42.320;23.198;2023-04-24T03:07:28;94564.88;;;7.44;95.64
63097;BME280;49185;42.320;23.198;2023-04-24T03:09:53;94560.69;;;7.07;97.48
63097;BME280;49185;42.320;23.198;2023-04-24T03:12:18;94568.28;;;6.80;99.48
63097;BME280;49185;42.320;23.198;2023-04-24T03:14:44;94568.78;;;6.46;100.00
63097;BME280;49185;42.320;23.198;2023-04-24T03:17:09;94573.38;;;6.39;100.00
63097;BME280;49185;42.320;23.198;2023-04-24T03:19:35;94570.03;;;6.44;100.00
63097;BME280;49185;42.320;23.198;2023-04-24T03:22:02;94578.19;;;6.42;100.00
63097;BME280;49185;42.320;23.198;2023-04-24T03:24:28;94583.41;;;6.61;100.00
63097;BME280;49185;42.320;23.198;2023-04-24T03:26:53;94578.41;;;7.07;97.83
63097;BME280;49185;42.320;23.198;2023-04-24T03:29:18;94581.03;;;7.18;96.37
63097;BME280;49185;42.320;23.198;2023-04-24T03:31:44;94575.38;;;7.15;95.93
63097;BME280;49185;42.320;23.198;2023-04-24T03:34:09;94575.25;;;6.62;98.24
63097;BME280;49185;42.320;23.198;2023-04-24T03:36:35;94578.97;;;6.97;98.20
63097;BME280;49185;42.320;23.198;2023-04-24T03:39:00;94569.63;;;6.59;99.12
63097;BME280;49185;42.320;23.198;2023-04-24T03:41:26;94575.38;;;6.68;100.00
63097;BME280;49185;42.320;23.198;2023-04-24T03:43:51;94579.09;;;7.14;97.58
63097;BME280;49185;42.320;23.198;2023-04-24T03:46:16;94584.69;;;6.94;97.35
63097;BME280;49185;42.320;23.198;2023-04-24T03:48:42;94578.56;;;6.58;100.00
63097;BME280;49185;42.320;23.198;2023-04-24T03:51:09;94577.59;;;6.40;100.00
63097;BME280;49185;42.320;23.198;2023-04-24T03:53:34;94572.31;;;6.40;100.00
63097;BME280;49185;42.320;23.198;2023-04-24T03:56:00;94571.88;;;6.43;100.00
63097;BME280;49185;42.320;23.198;2023-04-24T03:58:25;94577.50;;;6.47;100.00
63097;BME280;49185;42.320;23.198;2023-04-24T04:00:50;94578.34;;;6.59;100.00
63097;BME280;49185;42.320;23.198;2023-04-24T04:03:16;94577.41;;;6.65;100.00
63097;BME280;49185;42.320;23.198;2023-04-24T04:05:41;94575.03;;;7.11;100.00
63097;BME280;49185;42.320;23.198;2023-04-24T04:08:07;94583.19;;;7.57;96.31
63097;BME280;49185;42.320;23.198;2023-04-24T04:10:32;94582.69;;;7.72;95.42
63097;BME280;49185;42.320;23.198;2023-04-24T04:12:57;94583.75;;;7.59;95.69
63097;BME280;49185;42.320;23.198;2023-04-24T04:15:23;94584.53;;;7.71;95.28
63097;BME280;49185;42.320;23.198;2023-04-24T04:17:48;94579.34;;;7.76;94.03
63097;BME280;49185;42.320;23.198;2023-04-24T04:20:14;94582.31;;;7.80;93.96
63097;BME280;49185;42.320;23.198;2023-04-24T04:22:39;94584.88;;;7.75;94.87
63097;BME280;49185;42.320;23.198;2023-04-24T04:25:05;94582.59;;;7.67;94.91
63097;BME280;49185;42.320;23.198;2023-04-24T04:27:31;94588.72;;;7.96;93.94
63097;BME280;49185;42.320;23.198;2023-04-24T04:29:56;94591.56;;;8.06;93.05
63097;BME280;49185;42.320;23.198;2023-04-24T04:32:21;94599.63;;;7.71;94.46
63097;BME280;49185;42.320;23.198;2023-04-24T04:34:47;94590.88;;;7.70;94.89
63097;BME280;49185;42.320;23.198;2023-04-24T04:37:12;94590.16;;;7.75;95.34
63097;BME280;49185;42.320;23.198;2023-04-24T04:39:38;94592.38;;;7.66;95.68
63097;BME280;49185;42.320;23.198;2023-04-24T04:42:03;94592.78;;;7.87;95.59
63097;BME280;49185;42.320;23.198;2023-04-24T04:44:29;94589.84;;;8.00;94.03
63097;BME280;49185;42.320;23.198;2023-04-24T04:46:54;94590.19;;;8.04;93.84
63097;BME280;49185;42.320;23.198;2023-04-24T04:49:20;94599.19;;;8.03;93.84
63097;BME280;49185;42.320;23.198;2023-04-24T04:51:45;94594.78;;;8.08;93.60
63097;BME280;49185;42.320;23.198;2023-04-24T04:54:10;94598.81;;;8.11;93.99
63097;BME280;49185;42.320;23.198;2023-04-24T04:56:36;94587.69;;;7.97;94.79
63097;BME280;49185;42.320;23.198;2023-04-24T04:59:01;94602.41;;;8.05;93.89
63097;BME280;49185;42.320;23.198;2023-04-24T05:01:27;94604.81;;;8.35;92.59
63097;BME280;49185;42.320;23.198;2023-04-24T05:03:52;94594.34;;;8.28;92.35
63097;BME280;49185;42.320;23.198;2023-04-24T05:06:18;94597.66;;;8.35;92.16
63097;BME280;49185;42.320;23.198;2023-04-24T05:08:43;94603.88;;;8.70;92.03
63097;BME280;49185;42.320;23.198;2023-04-24T05:11:08;94591.78;;;9.47;85.48
63097;BME280;49185;42.320;23.198;2023-04-24T05:13:34;94595.09;;;9.98;82.71
63097;BME280;49185;42.320;23.198;2023-04-24T05:15:59;94593.75;;;9.96;82.92
63097;BME280;49185;42.320;23.198;2023-04-24T05:18:25;94590.94;;;11.59;77.07
63097;BME280;49185;42.320;23.198;2023-04-24T05:20:50;94577.78;;;12.84;70.57
63097;BME280;49185;42.320;23.198;2023-04-24T05:23:15;94578.81;;;13.19;67.87
63097;BME280;49185;42.320;23.198;2023-04-24T05:25:41;94591.13;;;12.84;69.44
63097;BME280;49185;42.320;23.198;2023-04-24T05:28:06;94592.88;;;12.32;70.36
63097;BME280;49185;42.320;23.198;2023-04-24T05:30:32;94599.31;;;12.36;71.05
63097;BME280;49185;42.320;23.198;2023-04-24T05:32:57;94599.03;;;12.32;72.73
63097;BME280;49185;42.320;23.198;2023-04-24T05:35:23;94593.53;;;13.11;69.03
63097;BME280;49185;42.320;23.198;2023-04-24T05:37:48;94586.09;;;15.14;62.64
63097;BME280;49185;42.320;23.198;2023-04-24T05:40:13;94587.31;;;17.10;55.75
63097;BME280;49185;42.320;23.198;2023-04-24T05:42:39;94583.38;;;17.54;53.43
63097;BME280;49185;42.320;23.198;2023-04-24T05:45:05;94590.47;;;14.55;61.28
63097;BME280;49185;42.320;23.198;2023-04-24T05:47:30;94589.94;;;14.58;61.81
63097;BME280;49185;42.320;23.198;2023-04-24T05:49:56;94594.56;;;15.55;60.05
63097;BME280;49185;42.320;23.198;2023-04-24T05:52:21;94589.94;;;14.53;60.59
63097;BME280;49185;42.320;23.198;2023-04-24T05:54:47;94591.88;;;15.85;58.75
63097;BME280;49185;42.320;23.198;2023-04-24T05:57:13;94584.72;;;18.53;49.13
63097;BME280;49185;42.320;23.198;2023-04-24T05:59:38;94582.16;;;19.21;46.83
63097;BME280;49185;42.320;23.198;2023-04-24T06:02:04;94582.69;;;20.17;44.89
63097;BME280;49185;42.320;23.198;2023-04-24T06:04:29;94574.13;;;19.61;47.97
63097;BME280;49185;42.320;23.198;2023-04-24T06:06:55;94586.50;;;20.82;43.01
63097;BME280;49185;42.320;23.198;2023-04-24T06:09:20;94586.38;;;22.05;40.65
63097;BME280;49185;42.320;23.198;2023-04-24T06:11:46;94587.22;;;21.79;41.21
63097;BME280;49185;42.320;23.198;2023-04-24T06:14:11;94589.94;;;21.79;39.85
63097;BME280;49185;42.320;23.198;2023-04-24T06:16:36;94596.38;;;21.57;40.29
63097;BME280;49185;42.320;23.198;2023-04-24T06:19:02;94597.09;;;21.92;41.44
63097;BME280;49185;42.320;23.198;2023-04-24T06:21:27;94598.19;;;22.39;39.80
63097;BME280;49185;42.320;23.198;2023-04-24T06:23:53;94598.66;;;22.70;38.78
63097;BME280;49185;42.320;23.198;2023-04-24T06:26:19;94592.16;;;23.68;37.21
63097;BME280;49185;42.320;23.198;2023-04-24T06:28:45;94595.06;;;22.79;37.56
63097;BME280;49185;42.320;23.198;2023-04-24T06:31:10;94600.09;;;20.02;44.03
63097;BME280;49185;42.320;23.198;2023-04-24T06:33:35;94602.06;;;19.34;44.12
63097;BME280;49185;42.320;23.198;2023-04-24T06:36:01;94606.28;;;18.39;49.59
63097;BME280;49185;42.320;23.198;2023-04-24T06:38:26;94611.06;;;18.15;48.20
63097;BME280;49185;42.320;23.198;2023-04-24T06:40:52;94589.88;;;19.90;44.22
63097;BME280;49185;42.320;23.198;2023-04-24T06:43:17;94593.31;;;20.71;41.83
63097;BME280;49185;42.320;23.198;2023-04-24T06:45:42;94587.84;;;20.36;43.49
63097;BME280;49185;42.320;23.198;2023-04-24T06:48:08;94579.97;;;21.27;40.80
63097;BME280;49185;42.320;23.198;2023-04-24T06:50:33;94581.34;;;21.77;39.56
63097;BME280;49185;42.320;23.198;2023-04-24T06:52:59;94587.41;;;22.30;37.80
63097;BME280;49185;42.320;23.198;2023-04-24T06:55:24;94585.03;;;23.09;36.89
63097;BME280;49185;42.320;23.198;2023-04-24T06:57:50;94588.81;;;22.87;36.19
63097;BME280;49185;42.320;23.198;2023-04-24T07:00:15;94586.91;;;23.96;34.63
63097;BME280;49185;42.320;23.198;2023-04-24T07:02:41;94583.78;;;22.47;37.49
63097;BME280;49185;42.320;23.198;2023-04-24T07:05:06;94583.63;;;23.91;34.23
63097;BME280;49185;42.320;23.198;2023-04-24T07:07:32;94579.44;;;22.84;36.14
63097;BME280;49185;42.320;23.198;2023-04-24T07:09:57;94587.41;;;24.35;33.27
63097;BME280;49185;42.320;23.198;2023-04-24T07:12:22;94577.44;;;24.27;33.66
63097;BME280;49185;42.320;23.198;2023-04-24T07:14:48;94574.69;;;23.69;34.18
63097;BME280;49185;42.320;23.198;2023-04-24T07:17:13;94579.63;;;23.55;35.76
63097;BME280;49185;42.320;23.198;2023-04-24T07:19:39;94572.28;;;25.40;33.10
63097;BME280;49185;42.320;23.198;2023-04-24T07:22:04;94563.16;;;24.67;33.36
63097;BME280;49185;42.320;23.198;2023-04-24T07:24:30;94562.94;;;25.53;32.20
63097;BME280;49185;42.320;23.198;2023-04-24T07:26:56;94564.38;;;24.82;33.20
63097;BME280;49185;42.320;23.198;2023-04-24T07:29:21;94561.19;;;23.81;35.63
63097;BME280;49185;42.320;23.198;2023-04-24T07:31:47;94561.00;;;24.73;33.77
63097;BME280;49185;42.320;23.198;2023-04-24T07:34:12;94549.34;;;24.35;35.12
63097;BME280;49185;42.320;23.198;2023-04-24T07:36:37;94546.03;;;23.47;36.11
63097;BME280;49185;42.320;23.198;2023-04-24T07:39:04;94539.22;;;23.07;36.06
63097;BME280;49185;42.320;23.198;2023-04-24T07:41:29;94554.75;;;22.17;39.16
63097;BME280;49185;42.320;23.198;2023-04-24T07:43:55;94547.53;;;22.81;37.70
63097;BME280;49185;42.320;23.198;2023-04-24T07:46:20;94541.63;;;22.79;36.43
63097;BME280;49185;42.320;23.198;2023-04-24T07:48:46;94537.00;;;23.22;37.43
63097;BME280;49185;42.320;23.198;2023-04-24T07:51:11;94541.19;;;22.17;36.80
63097;BME280;49185;42.320;23.198;2023-04-24T07:53:37;94536.66;;;23.57;35.10
63097;BME280;49185;42.320;23.198;2023-04-24T07:56:02;94537.66;;;21.87;38.99
63097;BME280;49185;42.320;23.198;2023-04-24T07:58:28;94527.44;;;23.37;36.06
63097;BME280;49185;42.320;23.198;2023-04-24T08:00:53;94528.63;;;21.74;39.23
63097;BME280;49185;42.320;23.198;2023-04-24T08:03:18;94529.13;;;21.68;38.42
63097;BME280;49185;42.320;23.198;2023-04-24T08:05:44;94529.84;;;23.84;36.00
63097;BME280;49185;42.320;23.198;2023-04-24T08:08:09;94531.97;;;24.52;34.06
63097;BME280;49185;42.320;23.198;2023-04-24T08:10:35;94535.41;;;24.61;34.31
63097;BME280;49185;42.320;23.198;2023-04-24T08:13:00;94523.03;;;24.27;34.36
63097;BME280;49185;42.320;23.198;2023-04-24T08:15:27;94525.66;;;24.11;35.86
63097;BME280;49185;42.320;23.198;2023-04-24T08:17:53;94525.97;;;22.34;39.53
63097;BME280;49185;42.320;23.198;2023-04-24T08:20:18;94526.19;;;22.20;39.58
63097;BME280;49185;42.320;23.198;2023-04-24T08:22:44;94522.72;;;22.91;37.57
63097;BME280;49185;42.320;23.198;2023-04-24T08:25:10;94512.59;;;24.41;35.29
63097;BME280;49185;42.320;23.198;2023-04-24T08:27:36;94512.66;;;25.67;31.51
63097;BME280;49185;42.320;23.198;2023-04-24T08:30:01;94511.00;;;25.62;31.57
63097;BME280;49185;42.320;23.198;2023-04-24T08:32:27;94507.44;;;25.46;31.96
63097;BME280;49185;42.320;23.198;2023-04-24T08:34:52;94501.88;;;25.26;33.23
63097;BME280;49185;42.320;23.198;2023-04-24T08:37:18;94491.75;;;23.72;36.56
63097;BME280;49185;42.320;23.198;2023-04-24T08:39:43;94491.16;;;22.66;37.22
63097;BME280;49185;42.320;23.198;2023-04-24T08:42:08;94488.38;;;22.24;38.24
63097;BME280;49185;42.320;23.198;2023-04-24T08:44:36;94485.34;;;21.66;40.52
63097;BME280;49185;42.320;23.198;2023-04-24T08:47:02;94473.75;;;23.67;34.98
63097;BME280;49185;42.320;23.198;2023-04-24T08:49:28;94468.66;;;24.92;33.06
63097;BME280;49185;42.320;23.198;2023-04-24T08:51:54;94470.28;;;24.16;35.27
63097;BME280;49185;42.320;23.198;2023-04-24T08:54:20;94478.28;;;23.17;36.43
63097;BME280;49185;42.320;23.198;2023-04-24T08:56:47;94472.28;;;25.41;33.89
63097;BME280;49185;42.320;23.198;2023-04-24T08:59:15;94456.53;;;24.90;33.36
63097;BME280;49185;42.320;23.198;2023-04-24T09:01:41;94459.59;;;25.45;33.46
63097;BME280;49185;42.320;23.198;2023-04-24T09:04:09;94457.28;;;25.31;31.96
63097;BME280;49185;42.320;23.198;2023-04-24T09:06:34;94449.88;;;24.10;34.13
63097;BME280;49185;42.320;23.198;2023-04-24T09:09:00;94446.75;;;24.60;34.34
63097;BME280;49185;42.320;23.198;2023-04-24T09:11:26;94444.94;;;24.52;33.24
63097;BME280;49185;42.320;23.198;2023-04-24T09:13:53;94430.00;;;23.23;35.74
63097;BME280;49185;42.320;23.198;2023-04-24T09:16:19;94443.44;;;22.23;37.18
63097;BME280;49185;42.320;23.198;2023-04-24T09:18:45;94438.25;;;22.39;38.60
63097;BME280;49185;42.320;23.198;2023-04-24T09:21:11;94432.97;;;23.42;36.55
63097;BME280;49185;42.320;23.198;2023-04-24T09:23:36;94434.31;;;22.90;39.80
63097;BME280;49185;42.320;23.198;2023-04-24T09:26:03;94427.88;;;22.95;36.43
63097;BME280;49185;42.320;23.198;2023-04-24T09:28:31;94420.91;;;23.77;33.80
63097;BME280;49185;42.320;23.198;2023-04-24T09:31:12;94425.75;;;22.46;34.54
63097;BME280;49185;42.320;23.198;2023-04-24T09:33:38;94420.25;;;22.55;37.04
63097;BME280;49185;42.320;23.198;2023-04-24T09:36:04;94412.31;;;22.50;34.66
63097;BME280;49185;42.320;23.198;2023-04-24T09:38:36;94407.88;;;22.66;32.39
63097;BME280;49185;42.320;23.198;2023-04-24T09:41:05;94413.94;;;22.51;33.63
63097;BME280;49185;42.320;23.198;2023-04-24T09:43:31;94411.81;;;22.56;34.59
63097;BME280;49185;42.320;23.198;2023-04-24T09:45:57;94397.00;;;22.33;33.48
63097;BME280;49185;42.320;23.198;2023-04-24T09:48:30;94409.50;;;22.46;34.56
63097;BME280;49185;42.320;23.198;2023-04-24T09:50:56;94403.69;;;22.35;32.77
63097;BME280;49185;42.320;23.198;2023-04-24T09:53:25;94391.78;;;22.28;32.86
63097;BME280;49185;42.320;23.198;2023-04-24T09:55:50;94399.56;;;22.08;32.81
63097;BME280;49185;42.320;23.198;2023-04-24T09:58:16;94395.53;;;22.90;32.44
63097;BME280;49185;42.320;23.198;2023-04-24T10:00:41;94401.63;;;22.87;30.61
63097;BME280;49185;42.320;23.198;2023-04-24T10:03:06;94395.72;;;22.72;30.95
63097;BME280;49185;42.320;23.198;2023-04-24T10:05:34;94390.47;;;23.01;31.05
63097;BME280;49185;42.320;23.198;2023-04-24T10:08:02;94389.56;;;22.63;29.84
63097;BME280;49185;42.320;23.198;2023-04-24T10:10:28;94394.59;;;22.73;29.70
63097;BME280;49185;42.320;23.198;2023-04-24T10:12:54;94390.44;;;23.34;30.36
63097;BME280;49185;42.320;23.198;2023-04-24T10:15:20;94395.09;;;23.58;28.37
63097;BME280;49185;42.320;23.198;2023-04-24T10:17:50;94389.09;;;23.77;29.02
63097;BME280;49185;42.320;23.198;2023-04-24T10:20:16;94390.78;;;24.19;28.08
63097;BME280;49185;42.320;23.198;2023-04-24T10:22:41;94385.91;;;24.53;28.06
63097;BME280;49185;42.320;23.198;2023-04-24T10:25:07;94386.56;;;24.21;30.36
63097;BME280;49185;42.320;23.198;2023-04-24T10:27:34;94397.78;;;24.89;27.89
63097;BME280;49185;42.320;23.198;2023-04-24T10:30:01;94386.81;;;24.85;26.87
63097;BME280;49185;42.320;23.198;2023-04-24T10:32:27;94384.53;;;24.06;28.65
63097;BME280;49185;42.320;23.198;2023-04-24T10:34:52;94377.59;;;24.33;27.17
63097;BME280;49185;42.320;23.198;2023-04-24T10:37:18;94367.50;;;25.34;27.26
63097;BME280;49185;42.320;23.198;2023-04-24T10:39:47;94367.34;;;23.77;29.10
63097;BME280;49185;42.320;23.198;2023-04-24T10:42:14;94369.19;;;23.36;31.23
63097;BME280;49185;42.320;23.198;2023-04-24T10:44:40;94373.03;;;23.84;30.81
63097;BME280;49185;42.320;23.198;2023-04-24T10:47:12;94359.75;;;23.21;30.73
63097;BME280;49185;42.320;23.198;2023-04-24T10:49:38;94354.00;;;23.60;29.92
63097;BME280;49185;42.320;23.198;2023-04-24T10:52:04;94367.13;;;23.33;31.32
63097;BME280;49185;42.320;23.198;2023-04-24T10:54:44;94359.88;;;23.62;30.76
63097;BME280;49185;42.320;23.198;2023-04-24T10:59:46;94361.25;;;23.43;30.78
63097;BME280;49185;42.320;23.198;2023-04-24T11:02:16;94349.72;;;23.09;32.24
63097;BME280;49185;42.320;23.198;2023-04-24T11:04:42;94350.97;;;22.79;32.81
63097;BME280;49185;42.320;23.198;2023-04-24T11:07:11;94346.50;;;22.95;32.38
63097;BME280;49185;42.320;23.198;2023-04-24T11:09:38;94345.19;;;23.50;32.96
63097;BME280;49185;42.320;23.198;2023-04-24T11:12:08;94365.28;;;24.80;31.18
63097;BME280;49185;42.320;23.198;2023-04-24T11:17:32;94337.47;;;24.02;30.59
63097;BME280;49185;42.320;23.198;2023-04-24T11:20:01;94340.94;;;24.15;29.40
63097;BME280;49185;42.320;23.198;2023-04-24T11:22:28;94343.47;;;25.24;28.50
63097;BME280;49185;42.320;23.198;2023-04-24T11:24:56;94337.22;;;24.76;29.02
63097;BME280;49185;42.320;23.198;2023-04-24T11:27:22;94326.72;;;24.62;30.68
63097;BME280;49185;42.320;23.198;2023-04-24T11:32:29;94317.91;;;23.72;30.03
63097;BME280;49185;42.320;23.198;2023-04-24T11:35:21;94313.50;;;23.67;31.81
63097;BME280;49185;42.320;23.198;2023-04-24T11:37:49;94310.78;;;25.56;29.32
63097;BME280;49185;42.320;23.198;2023-04-24T11:40:16;94305.50;;;24.68;32.13
63097;BME280;49185;42.320;23.198;2023-04-24T11:42:44;94304.47;;;24.88;29.04
63097;BME280;49185;42.320;23.198;2023-04-24T11:45:15;94304.13;;;24.74;29.22
63097;BME280;49185;42.320;23.198;2023-04-24T11:47:41;94300.88;;;25.32;28.65
63097;BME280;49185;42.320;23.198;2023-04-24T11:50:09;94288.50;;;25.02;27.93
63097;BME280;49185;42.320;23.198;2023-04-24T11:52:40;94297.38;;;24.99;28.09
63097;BME280;49185;42.320;23.198;2023-04-24T11:57:45;94284.50;;;23.96;29.68
63097;BME280;49185;42.320;23.198;2023-04-24T12:00:40;94288.41;;;24.11;30.98
63097;BME280;49185;42.320;23.198;2023-04-24T12:03:07;94270.94;;;24.40;28.85
63097;BME280;49185;42.320;23.198;2023-04-24T12:05:33;94271.06;;;24.43;30.36
63097;BME280;49185;42.320;23.198;2023-04-24T12:07:58;94262.75;;;25.16;30.79
63097;BME280;49185;42.320;23.198;2023-04-24T12:10:26;94272.78;;;24.36;30.23
63097;BME280;49185;42.320;23.198;2023-04-24T12:12:52;94269.06;;;24.28;29.78
63097;BME280;49185;42.320;23.198;2023-04-24T12:15:21;94254.16;;;23.16;31.24
63097;BME280;49185;42.320;23.198;2023-04-24T12:17:48;94252.88;;;23.50;30.12
63097;BME280;49185;42.320;23.198;2023-04-24T12:20:15;94249.59;;;24.26;31.32
63097;BME280;49185;42.320;23.198;2023-04-24T12:22:44;94252.78;;;23.22;30.63
63097;BME280;49185;42.320;23.198;2023-04-24T12:25:11;94242.13;;;23.42;30.08
63097;BME280;49185;42.320;23.198;2023-04-24T12:27:36;94244.31;;;24.17;32.03
63097;BME280;49185;42.320;23.198;2023-04-24T12:30:04;94235.97;;;24.10;31.38
63097;BME280;49185;42.320;23.198;2023-04-24T12:32:30;94234.66;;;24.20;31.40
63097;BME280;49185;42.320;23.198;2023-04-24T12:34:55;94235.47;;;24.64;29.69
63097;BME280;49185;42.320;23.198;2023-04-24T12:37:24;94231.00;;;24.28;30.12
63097;BME280;49185;42.320;23.198;2023-04-24T12:40:06;94226.22;;;24.09;29.39
63097;BME280;49185;42.320;23.198;2023-04-24T12:42:33;94223.44;;;24.21;28.93
63097;BME280;49185;42.320;23.198;2023-04-24T12:45:03;94214.31;;;24.14;31.55
63097;BME280;49185;42.320;23.198;2023-04-24T12:47:31;94213.47;;;23.57;32.20
63097;BME280;49185;42.320;23.198;2023-04-24T12:49:57;94208.00;;;22.79;32.29
63097;BME280;49185;42.320;23.198;2023-04-24T12:52:23;94199.56;;;22.23;31.37
63097;BME280;49185;42.320;23.198;2023-04-24T12:54:50;94198.28;;;22.20;32.05
63097;BME280;49185;42.320;23.198;2023-04-24T12:57:15;94193.75;;;22.94;30.87